Flight Track Log - Related Links

Times and Time Zones

All times are in EDT time to prevent confusion due to time zone crossing. See the GGN7280 flight status page for this flight to view local times or setup timezone preferences in your user account.

Time Position Orientation Groundspeed Altitude Reporting Facility
EDT Latitude Longitude Course Direction KTS MPH feet Rate Location/Type
Sat 09:57:13 AM 43.6667 -79.5667 100° East 150 173 1,700  Level Toronto Center
Sat 09:58:13 AM 43.6667 -79.5000 90° East 170 196 3,400 1,600 Climbing Toronto Center
Sat 09:59:13 AM 43.6500 -79.4333 109° East 180 207 4,900 1,350 Climbing Toronto Center
Sat 10:00:13 AM 43.6167 -79.3833 133° Southeast 200 230 6,100 1,050 Climbing Toronto Center
Sat 10:01:13 AM 43.5833 -79.3167 125° Southeast 220 253 7,000 900 Climbing Toronto Center
Sat 10:02:13 AM 43.5500 -79.2167 115° Southeast 230 265 7,900 500 Climbing Toronto Center
Sat 10:03:00 AM 43.5103 -78.4149 100° East  Level Estimated
Sat 10:03:13 AM 43.5167 -79.1333 119° Southeast 240 276 8,000  Level Toronto Center
Sat 10:04:13 AM 43.4833 -79.0667 125° Southeast 260 299 8,100 350 Climbing Toronto Center
Sat 10:05:13 AM 43.4500 -78.9667 115° Southeast 260 299 8,700 1,000 Climbing Toronto Center
Sat 10:06:13 AM 43.4167 -78.8833 119° Southeast 240 276 10,100 1,200 Climbing Toronto Center
Sat 10:07:13 AM 43.3833 -78.8000 119° Southeast 230 265 11,100 522 Climbing Toronto Center
Sat 10:08:08 AM 43.3503 -78.7589 138° Southeast 238 274 11,100  Level Cleveland Center
Sat 10:09:08 AM 43.3072 -78.6775 126° Southeast 252 290 11,100 733 Level Cleveland Center
Sat 10:11:08 AM 43.2256 -78.5206 125° Southeast 255 293 13,300 1,067 Climbing Cleveland Center
Sat 10:12:08 AM 43.1886 -78.4419 123° Southeast 250 288 14,300 1,000 Climbing Cleveland Center
Sat 10:13:08 AM 43.1703 -78.3572 106° East 235 270 15,300 1,050 Climbing Cleveland Center
Sat 10:14:08 AM 43.1747 -78.2658 86° East 230 265 16,400 1,000 Climbing Cleveland Center
Sat 10:15:08 AM 43.1667 -78.1722 97° East 230 265 17,300 1,000 Climbing Cleveland Center
Sat 10:16:08 AM 43.1586 -78.0900 98° East 235 270 18,400 900 Climbing Cleveland Center
Sat 10:17:08 AM 43.1525 -78.0050 96° East 235 270 19,100 700 Climbing Cleveland Center
Sat 10:18:08 AM 43.1486 -77.9169 93° East 235 270 19,800 800 Climbing Cleveland Center
Sat 10:19:08 AM 43.1403 -77.8319 98° East 235 270 20,700 550 Climbing Cleveland Center
Sat 10:20:08 AM 43.1319 -77.7411 97° East 235 270 20,900 150 Climbing Cleveland Center
Sat 10:21:08 AM 43.1231 -77.6419 97° East 245 282 21,000 50 Climbing Cleveland Center
Sat 10:22:08 AM 43.1142 -77.5400 97° East 257 296 21,000  Level Cleveland Center
Sat 10:23:08 AM 43.1053 -77.4408 97° East 262 302 21,000  Level Cleveland Center
Sat 10:24:08 AM 43.0986 -77.3444 95° East 257 296 21,000  Level Cleveland Center
Sat 10:25:08 AM 43.0914 -77.2453 96° East 257 296 21,000  Level Cleveland Center
Sat 10:26:08 AM 43.0825 -77.1464 97° East 257 296 21,000  Level Cleveland Center
Sat 10:28:13 AM 43.0500 -76.9167 101° East 260 299 21,000  Level Toronto Center
Sat 10:29:13 AM 43.0500 -76.8333 90° East 260 299 21,000  Level Toronto Center
Sat 10:30:13 AM 43.0333 -76.7333 103° East 260 299 21,000  Level Toronto Center
Sat 10:31:13 AM 43.0167 -76.6167 101° East 260 299 21,000  Level Toronto Center
Sat 10:32:13 AM 43.0167 -76.5333 90° East 260 299 21,000  Level Toronto Center
Sat 10:33:13 AM 43.0000 -76.4333 103° East 260 299 21,000  Level Toronto Center
Sat 10:33:48 AM 43.0186 -76.4247 19° North 257 296 21,000  Level Boston Center
Sat 10:34:48 AM 43.0100 -76.3106 96° East 257 296 21,000  Level Boston Center
Sat 10:35:48 AM 43.0008 -76.2106 97° East 257 296 21,000  Level Boston Center
Sat 10:36:48 AM 42.9914 -76.1108 97° East 257 296 21,000  Level Boston Center
Sat 10:37:48 AM 42.9822 -76.0136 97° East 257 296 21,000 -300 Level Boston Center
Sat 10:38:48 AM 42.9750 -75.9081 95° East 262 302 20,400 -800 Descending Boston Center
Sat 10:39:48 AM 42.9781 -75.8006 88° East 272 313 19,400 -1,250 Descending Boston Center
Sat 10:40:48 AM 42.9792 -75.6897 89° East 277 319 17,900 -1,400 Descending Boston Center
Sat 10:41:48 AM 42.9847 -75.5736 86° East 290 334 16,600 -1,300 Descending Boston Center
Sat 10:42:48 AM 42.9856 -75.4603 89° East 290 334 15,300 -1,150 Descending Boston Center
Sat 10:43:48 AM 42.9928 -75.3442 85° East 290 334 14,300 -1,100 Descending Boston Center
Sat 10:44:48 AM 42.9956 -75.2308 88° East 295 339 13,100 -1,200 Descending Boston Center
Sat 10:45:48 AM 42.9983 -75.1144 88° East 295 339 11,900 -1,000 Descending Boston Center
Sat 10:46:48 AM 42.9989 -75.0008 90° East 295 339 11,100 -400 Descending Boston Center
Sat 10:47:48 AM 43.0014 -74.8903 88° East 295 339 11,100  Level Boston Center
Sat 10:48:27 AM 43.0008 -74.8219 91° East 277 319 11,100  Level Boston Center
Sat 10:49:04 AM 43.0042 -74.7569 86° East 276 318 11,100  Level Boston Center
Sat 10:49:48 AM 43.0014 -74.6886 93° East 279 321 11,100 -58 Level Boston Center
Sat 10:50:48 AM 43.0014 -74.5750 90° East 274 315 11,000  Descending Boston Center
Sat 10:51:48 AM 42.9739 -74.4917 114° Southeast 264 304 11,100 -682 Climbing Boston Center
Sat 10:53:00 AM 42.9636 -74.3553 96° East 298 343 9,500 -1,050 Descending Boston Center
Sat 10:53:48 AM 42.9564 -74.2897 99° East 284 327 9,000 -1,056 Descending Boston Center
Sat 10:54:48 AM 42.9461 -74.1589 96° East 284 327 7,600 -1,100 Descending Boston Center
Sat 10:55:48 AM 42.9431 -74.0653 93° East 284 327 6,800 -1,050 Descending Boston Center
Sat 10:56:48 AM 42.9344 -73.9517 96° East 272 313 5,500 -1,250 Descending Boston Center
Sat 10:57:48 AM 42.9272 -73.8636 96° East 272 313 4,300 -1,400 Descending Boston Center
Sat 10:58:48 AM 42.8797 -73.8169 144° Southeast 211 243 2,700 -1,000 Descending Boston Center
Sat 10:59:48 AM 42.8258 -73.7933 162° South 193 222 2,300 -965 Descending Boston Center
Sat 11:01:11 AM 42.7631 -73.8089 190° South 123 142 400 -1,373 Descending Boston Center
Sat 11:04:00 AM 42.7491 -73.8020 175° South  Level Estimated
Sat 11:11:00 AM 42.7491 -73.8020 175° South  Level Estimated

Login

Don't have an account? Register now (free) for customized features, flight alerts, and more!